Time;durP1;ratioP1;P1;durP2;ratioP2;P2;SDS_P1;SDS_P2;PMS_P1;PMS_P2;Temp;Humidity;BMP_temperature;BMP_pressure;BME280_temperature;BME280_humidity;BME280_pressure;Samples;Min_cycle;Max_cycle;Signal;HPM_P1;HPM_P2
2022/01/01 00:00:34;;;;;;;441.58;278.85;;;12.60;99.90;;;;;;5086445;28;39944;-76
2022/01/01 00:03:00;;;;;;;335.48;211.48;;;12.60;99.90;;;;;;5094736;27;39458;-75
2022/01/01 00:05:27;;;;;;;296.55;174.65;;;12.70;99.90;;;;;;5078585;27;39923;-75
2022/01/01 00:07:53;;;;;;;230.93;140.13;;;12.60;99.90;;;;;;5079516;28;38440;-74
2022/01/01 00:10:21;;;;;;;166.45;102.75;;;12.60;99.90;;;;;;5090465;27;39746;-75
2022/01/01 00:12:48;;;;;;;186.60;107.38;;;12.60;99.90;;;;;;5083828;28;38582;-75
2022/01/01 00:15:15;;;;;;;215.45;110.75;;;12.60;99.90;;;;;;5084087;27;38683;-75
2022/01/01 00:17:41;;;;;;;163.68;97.40;;;12.60;99.90;;;;;;5088912;28;38594;-75
2022/01/01 00:20:09;;;;;;;159.93;85.00;;;12.60;99.90;;;;;;5100973;27;39576;-75
2022/01/01 00:22:40;;;;;;;151.82;87.88;;;12.60;99.90;;;;;;5104921;27;38520;-74
2022/01/01 00:25:07;;;;;;;170.88;93.65;;;12.70;99.90;;;;;;5093120;27;38824;-75
2022/01/01 00:27:33;;;;;;;150.55;83.63;;;12.70;99.90;;;;;;5085600;27;36676;-74
2022/01/01 00:29:59;;;;;;;124.00;68.28;;;12.70;99.90;;;;;;5091313;28;39301;-74
2022/01/01 00:32:26;;;;;;;141.07;78.63;;;12.70;99.90;;;;;;5106676;27;37398;-74
2022/01/01 00:34:52;;;;;;;117.60;56.30;;;12.70;99.90;;;;;;5089754;27;38542;-74
2022/01/01 00:37:18;;;;;;;143.98;67.53;;;12.70;99.90;;;;;;5087006;28;37806;-73
2022/01/01 00:39:44;;;;;;;120.85;54.85;;;12.70;99.90;;;;;;5088846;27;40118;-74
2022/01/01 00:42:10;;;;;;;119.47;51.70;;;12.70;99.90;;;;;;5112920;27;39467;-74
2022/01/01 00:44:37;;;;;;;134.27;72.32;;;12.70;99.90;;;;;;5078037;27;38713;-74
2022/01/01 00:47:03;;;;;;;113.32;48.45;;;12.80;99.90;;;;;;5086702;27;37892;-74
2022/01/01 00:49:30;;;;;;;96.20;43.15;;;12.80;99.90;;;;;;5093889;27;38917;-74
2022/01/01 00:51:56;;;;;;;104.82;48.13;;;12.90;99.90;;;;;;5090601;28;38865;-74
2022/01/01 00:54:22;;;;;;;99.38;45.95;;;12.80;99.90;;;;;;5074514;27;39779;-75
2022/01/01 00:56:48;;;;;;;93.30;37.97;;;12.80;99.90;;;;;;5091169;27;36100;-74
2022/01/01 00:59:17;;;;;;;109.90;47.92;;;12.80;99.90;;;;;;5078993;27;39306;-74
2022/01/01 01:01:43;;;;;;;95.47;42.17;;;12.90;99.90;;;;;;5094343;27;36236;-74
2022/01/01 01:04:09;;;;;;;93.05;36.22;;;12.90;99.90;;;;;;5096231;27;38531;-74
2022/01/01 01:06:35;;;;;;;72.65;33.72;;;12.90;99.90;;;;;;5098443;27;38142;-74
2022/01/01 01:09:02;;;;;;;73.65;33.03;;;12.90;99.90;;;;;;5076844;28;39725;-75
2022/01/01 01:11:29;;;;;;;84.07;41.55;;;13.00;99.90;;;;;;5082801;28;40059;-75
2022/01/01 01:13:58;;;;;;;77.03;35.60;;;13.00;99.90;;;;;;5082725;27;38283;-74
2022/01/01 01:16:26;;;;;;;83.53;35.92;;;13.10;99.90;;;;;;5091730;27;37938;-74
2022/01/01 01:18:54;;;;;;;75.78;32.45;;;13.10;99.90;;;;;;5078216;28;39856;-74
2022/01/01 01:21:23;;;;;;;66.53;33.95;;;13.00;99.90;;;;;;5096320;27;39258;-74
2022/01/01 01:23:49;;;;;;;86.78;35.65;;;13.10;99.90;;;;;;5096814;27;38558;-74
2022/01/01 01:26:16;;;;;;;75.72;34.08;;;13.10;99.90;;;;;;5083071;28;39298;-75
2022/01/01 01:28:48;;;;;;;77.70;34.08;;;13.20;99.90;;;;;;5092056;27;39002;-74
2022/01/01 01:31:16;;;;;;;77.72;35.78;;;13.20;99.90;;;;;;5086264;27;39890;-74
2022/01/01 01:33:45;;;;;;;73.97;37.78;;;13.20;99.90;;;;;;5100646;27;38276;-74
2022/01/01 01:36:12;;;;;;;82.18;38.38;;;13.30;99.90;;;;;;5103343;27;39979;-75
2022/01/01 01:38:38;;;;;;;75.65;35.85;;;13.30;99.90;;;;;;5085280;28;40026;-74
2022/01/01 01:41:06;;;;;;;81.90;42.22;;;13.30;99.90;;;;;;5094810;27;38878;-74
2022/01/01 01:43:33;;;;;;;94.95;47.03;;;13.30;99.90;;;;;;5092968;27;38280;-74
2022/01/01 01:46:04;;;;;;;93.45;49.35;;;13.30;99.90;;;;;;5094387;27;37060;-74
2022/01/01 01:48:32;;;;;;;104.60;48.33;;;13.20;99.90;;;;;;5079636;28;47247;-74
2022/01/01 01:50:59;;;;;;;91.72;46.60;;;13.20;99.90;;;;;;5077805;27;39015;-74
2022/01/01 01:53:26;;;;;;;77.97;42.33;;;13.20;99.90;;;;;;5099086;27;38215;-73
2022/01/01 01:55:54;;;;;;;80.05;41.85;;;13.20;99.90;;;;;;5083183;28;37159;-74
2022/01/01 01:58:21;;;;;;;79.90;35.58;;;13.20;99.90;;;;;;5077406;27;40996;-74
2022/01/01 02:03:13;;;;;;;78.07;38.55;;;13.10;99.90;;;;;;5099665;27;39178;-73
2022/01/01 02:05:39;;;;;;;73.82;32.78;;;13.00;99.90;;;;;;5094899;27;38491;-74
2022/01/01 02:08:07;;;;;;;84.03;36.38;;;12.90;99.90;;;;;;5076593;28;41119;-74
2022/01/01 02:10:34;;;;;;;64.65;28.88;;;12.90;99.90;;;;;;5090646;27;39414;-74
2022/01/01 02:13:09;;;;;;;91.35;36.08;;;12.90;99.90;;;;;;5077681;28;38888;-74
2022/01/01 02:16:11;;;;;;;72.82;34.40;;;13.00;99.90;;;;;;5080696;27;47335;-74
2022/01/01 02:18:33;;;;;;;74.93;38.95;;;13.00;99.90;;;;;;5097484;27;48087;-75
2022/01/01 02:20:59;;;;;;;82.25;35.35;;;13.00;99.90;;;;;;5077829;27;39370;-74
2022/01/01 02:23:27;;;;;;;60.97;27.17;;;13.00;99.90;;;;;;5099112;27;38226;-75
2022/01/01 02:25:56;;;;;;;57.70;27.15;;;13.00;99.90;;;;;;5095566;27;37541;-74
2022/01/01 02:28:23;;;;;;;63.97;25.08;;;13.00;99.90;;;;;;5100680;27;39290;-74
2022/01/01 02:30:50;;;;;;;66.43;25.77;;;13.00;99.90;;;;;;5083037;28;39070;-74
2022/01/01 02:33:17;;;;;;;54.28;23.27;;;13.00;99.90;;;;;;5082673;28;40035;-74
2022/01/01 02:35:43;;;;;;;50.25;23.08;;;13.00;99.90;;;;;;5076379;27;37183;-74
2022/01/01 02:38:09;;;;;;;53.45;22.92;;;13.00;99.90;;;;;;5077077;28;38687;-75
2022/01/01 02:40:36;;;;;;;56.63;23.08;;;13.00;99.90;;;;;;5087340;27;38833;-75
2022/01/01 02:43:02;;;;;;;54.40;23.20;;;13.00;99.90;;;;;;5080162;27;38789;-74
2022/01/01 02:45:29;;;;;;;53.10;25.10;;;13.00;99.90;;;;;;5095047;27;47121;-74
2022/01/01 02:47:55;;;;;;;50.35;23.58;;;13.00;99.90;;;;;;5083807;28;40668;-74
2022/01/01 02:50:21;;;;;;;57.65;25.33;;;13.00;99.90;;;;;;5096328;27;39108;-74
2022/01/01 02:52:47;;;;;;;90.13;48.95;;;13.00;99.90;;;;;;5093262;27;38613;-74
2022/01/01 02:55:13;;;;;;;71.75;38.67;;;13.00;99.90;;;;;;5092452;27;37556;-74
2022/01/01 02:57:39;;;;;;;73.60;37.60;;;13.10;99.90;;;;;;5079944;27;39686;-74
2022/01/01 03:00:06;;;;;;;58.38;29.95;;;13.10;99.90;;;;;;5081591;27;40610;-74
2022/01/01 03:02:32;;;;;;;51.45;24.85;;;13.00;99.90;;;;;;5084084;27;39507;-75
2022/01/01 03:04:58;;;;;;;51.13;24.00;;;13.10;99.90;;;;;;5099837;27;37903;-74
2022/01/01 03:07:24;;;;;;;45.55;22.63;;;13.10;99.90;;;;;;5094247;27;39411;-74
2022/01/01 03:09:50;;;;;;;48.00;22.92;;;13.00;99.90;;;;;;5086591;27;38679;-74
2022/01/01 03:12:16;;;;;;;50.40;24.23;;;13.00;99.90;;;;;;5087426;27;38330;-75
2022/01/01 03:14:43;;;;;;;54.10;31.52;;;13.00;99.90;;;;;;5080890;27;37803;-74
2022/01/01 03:17:10;;;;;;;49.50;26.17;;;13.00;99.90;;;;;;5085946;27;39560;-74
2022/01/01 03:19:36;;;;;;;52.28;27.17;;;13.10;99.90;;;;;;5103084;27;41768;-74
2022/01/01 03:22:03;;;;;;;51.97;24.02;;;13.10;99.90;;;;;;5100560;27;38987;-74
2022/01/01 03:24:29;;;;;;;58.20;22.92;;;13.10;99.90;;;;;;5088988;27;38221;-74
2022/01/01 03:26:55;;;;;;;44.85;22.67;;;13.00;99.90;;;;;;5082722;27;40996;-74
2022/01/01 03:29:22;;;;;;;52.97;22.48;;;13.00;99.90;;;;;;5101883;27;39314;-74
2022/01/01 03:31:48;;;;;;;40.35;20.05;;;13.00;99.90;;;;;;5097031;27;39423;-75
2022/01/01 03:34:14;;;;;;;38.22;19.67;;;13.00;99.90;;;;;;5080598;27;35701;-74
2022/01/01 03:36:41;;;;;;;43.30;20.25;;;13.00;99.90;;;;;;5087749;28;39571;-74
2022/01/01 03:39:07;;;;;;;51.65;22.95;;;12.90;99.90;;;;;;5084060;28;40146;-74
2022/01/01 03:41:33;;;;;;;49.35;20.70;;;12.90;99.90;;;;;;5084923;27;38529;-74
2022/01/01 03:43:59;;;;;;;50.10;22.08;;;12.90;99.90;;;;;;5105012;27;36872;-74
2022/01/01 03:46:25;;;;;;;44.08;20.95;;;13.00;99.90;;;;;;5085858;27;39552;-75
2022/01/01 03:48:52;;;;;;;40.95;20.52;;;12.90;99.90;;;;;;5106556;27;38423;-74
2022/01/01 03:51:18;;;;;;;37.60;20.00;;;13.00;99.90;;;;;;5096573;27;38145;-74
2022/01/01 03:53:44;;;;;;;33.13;19.65;;;13.00;99.90;;;;;;5100421;27;36799;-74
2022/01/01 03:56:11;;;;;;;39.88;19.48;;;13.00;99.90;;;;;;5097781;27;38749;-74
2022/01/01 03:58:37;;;;;;;36.50;19.25;;;13.00;99.90;;;;;;5084464;28;39718;-73
2022/01/01 04:01:04;;;;;;;36.15;18.45;;;13.10;99.90;;;;;;5086021;28;39068;-74
2022/01/01 04:03:30;;;;;;;34.88;17.23;;;13.10;99.90;;;;;;5085385;28;38366;-73
2022/01/01 04:05:56;;;;;;;33.10;17.42;;;13.10;99.90;;;;;;5094670;27;39286;-73
2022/01/01 04:08:22;;;;;;;37.30;18.42;;;13.10;99.90;;;;;;5101909;27;38167;-73
2022/01/01 04:10:48;;;;;;;36.85;16.40;;;13.20;99.90;;;;;;5080909;27;39145;-74
2022/01/01 04:13:14;;;;;;;32.60;15.68;;;13.20;99.90;;;;;;5102713;27;38393;-73
2022/01/01 04:15:41;;;;;;;35.72;15.93;;;13.20;99.90;;;;;;5087297;27;39728;-73
2022/01/01 04:18:12;;;;;;;26.80;14.32;;;13.20;99.90;;;;;;5098042;27;38403;-74
2022/01/01 04:20:41;;;;;;;27.90;13.40;;;13.20;99.90;;;;;;5086876;27;39389;-74
2022/01/01 04:23:09;;;;;;;32.58;14.25;;;13.20;99.90;;;;;;5104875;27;38309;-73
2022/01/01 04:25:37;;;;;;;29.23;14.60;;;13.20;99.90;;;;;;5098621;27;38599;-74
2022/01/01 04:28:03;;;;;;;28.52;14.90;;;13.20;99.90;;;;;;5099816;27;39314;-74
2022/01/01 04:30:29;;;;;;;31.05;14.82;;;13.10;99.90;;;;;;5080825;28;40183;-73
2022/01/01 04:32:56;;;;;;;33.83;14.43;;;13.10;99.90;;;;;;5069560;28;37968;-74
2022/01/01 04:35:22;;;;;;;27.38;13.70;;;13.00;99.90;;;;;;5076549;27;39270;-74
2022/01/01 04:37:48;;;;;;;26.92;13.75;;;12.90;99.90;;;;;;5099564;27;38433;-74
2022/01/01 04:40:15;;;;;;;28.05;12.38;;;12.80;99.90;;;;;;5097615;27;38951;-74
2022/01/01 04:42:41;;;;;;;25.63;12.70;;;12.70;99.90;;;;;;5114443;27;38670;-74
2022/01/01 04:45:08;;;;;;;28.02;12.77;;;12.70;99.90;;;;;;5094526;27;39542;-74
2022/01/01 04:47:34;;;;;;;32.45;12.98;;;12.60;99.90;;;;;;5103835;27;37911;-74
2022/01/01 04:50:02;;;;;;;27.57;12.47;;;12.50;99.90;;;;;;5082501;27;37986;-75
2022/01/01 04:52:29;;;;;;;32.00;14.00;;;12.60;99.90;;;;;;5099977;27;49358;-75
2022/01/01 04:54:55;;;;;;;25.50;13.63;;;12.60;99.90;;;;;;5103422;27;38860;-73
2022/01/01 04:57:27;;;;;;;20.48;11.80;;;12.60;99.90;;;;;;5092411;27;38122;-73
2022/01/01 04:59:54;;;;;;;24.55;11.60;;;12.60;99.90;;;;;;5080448;27;37418;-74
2022/01/01 05:02:20;;;;;;;32.50;13.27;;;12.60;99.90;;;;;;5089674;27;37461;-74
2022/01/01 05:04:46;;;;;;;24.57;11.70;;;12.70;99.90;;;;;;5088646;27;37682;-73
2022/01/01 05:07:12;;;;;;;33.92;12.13;;;12.80;99.90;;;;;;5084972;27;38465;-73
2022/01/01 05:09:38;;;;;;;31.00;11.00;;;12.80;99.90;;;;;;5097180;27;38396;-74
2022/01/01 05:12:04;;;;;;;24.90;10.57;;;12.90;99.90;;;;;;5090395;27;39666;-73
2022/01/01 05:14:31;;;;;;;24.90;9.77;;;12.90;99.90;;;;;;5081442;28;38743;-73
2022/01/01 05:16:57;;;;;;;21.77;8.97;;;13.00;99.90;;;;;;5088740;27;37588;-74
2022/01/01 05:19:24;;;;;;;18.92;8.85;;;13.00;99.90;;;;;;5092728;27;38146;-74
2022/01/01 05:21:50;;;;;;;27.08;10.68;;;13.00;99.90;;;;;;5099968;27;37262;-74
2022/01/01 05:24:18;;;;;;;23.08;9.57;;;12.90;99.90;;;;;;5101197;27;38659;-74
2022/01/01 05:26:45;;;;;;;26.60;9.88;;;12.90;99.90;;;;;;5079801;27;37173;-75
2022/01/01 05:29:11;;;;;;;24.92;9.10;;;13.00;99.90;;;;;;5108767;27;39121;-75
2022/01/01 05:31:37;;;;;;;20.15;9.05;;;13.00;99.90;;;;;;5080529;28;39056;-73
2022/01/01 05:34:04;;;;;;;30.42;9.02;;;13.00;99.90;;;;;;5096768;27;38697;-73
2022/01/01 05:36:30;;;;;;;21.42;8.25;;;13.00;99.90;;;;;;5098368;27;38529;-74
2022/01/01 05:38:57;;;;;;;25.17;7.88;;;13.10;99.90;;;;;;5097837;27;38219;-73
2022/01/01 05:41:23;;;;;;;21.33;8.77;;;13.10;99.90;;;;;;5070428;27;37778;-74
2022/01/01 05:43:49;;;;;;;24.90;9.35;;;13.10;99.90;;;;;;5102504;27;38467;-73
2022/01/01 05:46:15;;;;;;;22.73;10.15;;;13.00;99.90;;;;;;5080791;27;39944;-74
2022/01/01 05:48:42;;;;;;;28.15;9.80;;;13.00;99.90;;;;;;5096399;27;38602;-74
2022/01/01 05:51:08;;;;;;;22.13;10.03;;;12.90;99.90;;;;;;5077374;28;39318;-74
2022/01/01 05:53:35;;;;;;;24.35;10.15;;;12.80;99.90;;;;;;5080963;28;39547;-74
2022/01/01 05:56:01;;;;;;;24.67;11.75;;;12.70;99.90;;;;;;5095627;27;38184;-74
2022/01/01 05:58:27;;;;;;;26.87;11.30;;;12.60;99.90;;;;;;5083622;28;47549;-74
2022/01/01 06:00:53;;;;;;;25.90;11.77;;;12.60;99.90;;;;;;5080652;27;36906;-74
2022/01/01 06:03:19;;;;;;;27.17;11.50;;;12.60;99.90;;;;;;5097552;27;39887;-74
2022/01/01 06:05:45;;;;;;;29.97;11.50;;;12.60;99.90;;;;;;5097690;27;40155;-74
2022/01/01 06:08:11;;;;;;;23.23;11.93;;;12.50;99.90;;;;;;5092310;27;38183;-74
2022/01/01 06:10:38;;;;;;;29.93;12.33;;;12.60;99.90;;;;;;5098820;27;37367;-74
2022/01/01 06:13:08;;;;;;;32.37;12.23;;;12.60;99.90;;;;;;5096022;27;38567;-74
2022/01/01 06:15:35;;;;;;;24.23;12.07;;;12.60;99.90;;;;;;5097808;27;37886;-75
2022/01/01 06:18:01;;;;;;;26.73;12.25;;;12.70;99.90;;;;;;5089011;27;37828;-74
2022/01/01 06:20:27;;;;;;;23.52;11.90;;;12.70;99.90;;;;;;5095967;27;37394;-74
2022/01/01 06:22:53;;;;;;;25.50;12.50;;;12.80;99.90;;;;;;5106449;27;38886;-73
2022/01/01 06:25:19;;;;;;;25.20;11.10;;;12.80;99.90;;;;;;5096550;27;38390;-73
2022/01/01 06:27:45;;;;;;;28.25;12.93;;;12.80;99.90;;;;;;5097306;27;41137;-73
2022/01/01 06:30:12;;;;;;;23.30;11.30;;;12.80;99.90;;;;;;5098899;27;38566;-74
2022/01/01 06:32:38;;;;;;;24.50;11.32;;;12.80;99.90;;;;;;5093958;27;39519;-73
2022/01/01 06:35:04;;;;;;;23.65;11.63;;;12.80;99.90;;;;;;5091273;27;39928;-74
2022/01/01 06:37:30;;;;;;;22.33;11.07;;;12.90;99.90;;;;;;5105178;27;38986;-73
2022/01/01 06:39:57;;;;;;;21.92;11.50;;;12.90;99.90;;;;;;5093794;27;39178;-74
2022/01/01 06:42:23;;;;;;;21.38;11.15;;;12.90;99.90;;;;;;5102762;27;38601;-74
2022/01/01 06:44:49;;;;;;;20.02;11.27;;;13.00;99.90;;;;;;5089637;28;39206;-73
2022/01/01 06:47:15;;;;;;;18.30;10.10;;;13.00;99.90;;;;;;5082458;28;39979;-74
2022/01/01 06:49:43;;;;;;;28.30;12.02;;;13.00;99.90;;;;;;5080123;27;38514;-74
2022/01/01 06:52:09;;;;;;;28.03;11.90;;;13.00;99.90;;;;;;5084227;27;39385;-74
2022/01/01 06:54:35;;;;;;;21.88;10.52;;;13.00;99.90;;;;;;5099781;27;38379;-74
2022/01/01 06:57:01;;;;;;;21.20;10.80;;;13.00;99.90;;;;;;5085433;27;38197;-74
2022/01/01 06:59:27;;;;;;;17.45;10.07;;;13.00;99.90;;;;;;5077530;27;47686;-74
2022/01/01 07:01:54;;;;;;;20.88;10.02;;;13.00;99.90;;;;;;5081528;28;39663;-74
2022/01/01 07:04:20;;;;;;;19.80;10.13;;;13.00;99.90;;;;;;5079203;28;39535;-74
2022/01/01 07:06:46;;;;;;;24.35;10.90;;;13.00;99.90;;;;;;5095939;27;37713;-73
2022/01/01 07:09:12;;;;;;;24.77;10.63;;;13.00;99.90;;;;;;5095984;27;36141;-74
2022/01/01 07:11:40;;;;;;;22.98;10.63;;;13.00;99.90;;;;;;5096805;27;38728;-74
2022/01/01 07:14:06;;;;;;;24.05;10.57;;;13.00;99.90;;;;;;5075170;28;38106;-74
2022/01/01 07:16:32;;;;;;;25.30;11.15;;;13.00;99.90;;;;;;5076054;28;38411;-74
2022/01/01 07:18:58;;;;;;;24.50;10.75;;;13.00;99.90;;;;;;5091495;27;37731;-73
2022/01/01 07:21:24;;;;;;;20.33;10.68;;;13.00;99.90;;;;;;5090574;27;39674;-73
2022/01/01 07:23:50;;;;;;;21.70;10.77;;;13.00;99.90;;;;;;5089869;27;38966;-73
2022/01/01 07:26:17;;;;;;;25.85;12.13;;;13.00;99.90;;;;;;5073740;27;36690;-75
2022/01/01 07:28:44;;;;;;;24.80;10.75;;;12.90;99.90;;;;;;5072512;27;36753;-74
2022/01/01 07:31:10;;;;;;;24.67;11.70;;;13.00;99.90;;;;;;5069398;28;40659;-74
2022/01/01 07:33:36;;;;;;;21.83;11.48;;;12.90;99.90;;;;;;5091982;27;39398;-74
2022/01/01 07:36:02;;;;;;;27.50;12.05;;;12.90;99.90;;;;;;5087649;27;37941;-74
2022/01/01 07:38:28;;;;;;;26.30;11.82;;;12.90;99.90;;;;;;5075341;27;36296;-74
2022/01/01 07:40:55;;;;;;;24.65;11.75;;;12.90;99.90;;;;;;5077482;28;40369;-74
2022/01/01 07:43:22;;;;;;;23.17;11.35;;;12.90;99.90;;;;;;5089635;27;39042;-74
2022/01/01 07:45:48;;;;;;;25.33;12.40;;;12.90;99.90;;;;;;5080955;27;38693;-74
2022/01/01 07:48:14;;;;;;;22.20;11.98;;;12.80;99.90;;;;;;5075973;27;38559;-74
2022/01/01 07:50:41;;;;;;;23.30;11.93;;;12.80;99.90;;;;;;5081613;27;39805;-74
2022/01/01 07:53:09;;;;;;;25.63;12.10;;;12.80;99.90;;;;;;5093245;27;38368;-73
2022/01/01 07:55:35;;;;;;;21.02;11.45;;;12.80;99.90;;;;;;5078834;27;38834;-73
2022/01/01 07:58:02;;;;;;;25.77;12.50;;;12.80;99.90;;;;;;5080512;27;38786;-73
2022/01/01 08:00:28;;;;;;;21.38;12.27;;;12.80;99.90;;;;;;5066736;27;46985;-73
2022/01/01 08:02:54;;;;;;;23.47;12.03;;;12.80;99.90;;;;;;5096863;27;38017;-73
2022/01/01 08:05:21;;;;;;;24.90;11.90;;;12.70;99.90;;;;;;5091779;27;37899;-74
2022/01/01 08:07:47;;;;;;;26.85;12.95;;;12.70;99.90;;;;;;5077055;27;37496;-73
2022/01/01 08:10:13;;;;;;;25.20;12.65;;;12.60;99.90;;;;;;5094059;27;38912;-74
2022/01/01 08:12:43;;;;;;;26.57;14.27;;;12.60;99.90;;;;;;5079482;27;37511;-74
2022/01/01 08:15:09;;;;;;;24.33;13.63;;;12.50;99.90;;;;;;5076167;27;39861;-74
2022/01/01 08:17:35;;;;;;;26.50;14.27;;;12.50;99.90;;;;;;5081385;27;38392;-74
2022/01/01 08:20:02;;;;;;;28.47;14.40;;;12.50;99.90;;;;;;5108716;27;39012;-73
2022/01/01 08:22:28;;;;;;;25.58;15.65;;;12.40;99.90;;;;;;5073997;27;48238;-74
2022/01/01 08:24:54;;;;;;;31.20;15.60;;;12.40;99.90;;;;;;5085683;27;38133;-74
2022/01/01 08:27:20;;;;;;;26.85;14.93;;;12.40;99.90;;;;;;5084930;27;37081;-73
2022/01/01 08:29:47;;;;;;;31.53;16.43;;;12.40;99.90;;;;;;5101740;27;38777;-74
2022/01/01 08:32:14;;;;;;;30.23;17.67;;;12.40;99.90;;;;;;5100970;27;38144;-73
2022/01/01 08:34:40;;;;;;;38.35;20.10;;;12.30;99.90;;;;;;5101351;27;37832;-73
2022/01/01 08:37:06;;;;;;;51.78;26.25;;;12.30;99.90;;;;;;5080100;28;37329;-74
2022/01/01 08:39:32;;;;;;;44.42;25.73;;;12.20;99.90;;;;;;5102664;27;39964;-73
2022/01/01 08:41:58;;;;;;;46.63;25.92;;;12.20;99.90;;;;;;5102798;27;38456;-73
2022/01/01 08:44:25;;;;;;;48.40;26.65;;;12.20;99.90;;;;;;5093717;27;38054;-73
2022/01/01 08:46:52;;;;;;;43.93;25.47;;;12.20;99.90;;;;;;5095257;27;38053;-74
2022/01/01 08:49:18;;;;;;;50.07;29.23;;;12.20;99.90;;;;;;5092395;27;40741;-73
2022/01/01 08:51:44;;;;;;;65.43;35.87;;;12.10;99.90;;;;;;5109310;27;39995;-73
2022/01/01 08:54:13;;;;;;;63.77;34.53;;;12.10;99.90;;;;;;5097144;27;38400;-74
2022/01/01 08:56:39;;;;;;;75.15;36.78;;;12.00;99.90;;;;;;5082992;27;38512;-73
2022/01/01 08:59:06;;;;;;;73.47;37.65;;;12.00;99.90;;;;;;5101331;27;38569;-73
2022/01/01 09:01:32;;;;;;;78.53;36.80;;;11.90;99.90;;;;;;5101743;27;38572;-73
2022/01/01 09:03:59;;;;;;;77.17;37.57;;;11.90;99.90;;;;;;5085565;27;39011;-73
2022/01/01 09:06:25;;;;;;;76.07;38.67;;;11.80;99.90;;;;;;5098691;27;38139;-73
2022/01/01 09:08:51;;;;;;;92.57;41.80;;;11.80;99.90;;;;;;5101500;27;38254;-72
2022/01/01 09:11:17;;;;;;;97.57;42.93;;;11.90;99.90;;;;;;5106642;27;39110;-72
2022/01/01 09:13:44;;;;;;;99.23;42.93;;;11.80;99.90;;;;;;5094377;27;38536;-72
2022/01/01 09:16:16;;;;;;;105.83;44.17;;;11.80;99.90;;;;;;5083130;27;37908;-72
2022/01/01 09:18:44;;;;;;;112.15;45.70;;;11.80;99.90;;;;;;5099366;27;39802;-71
2022/01/01 09:21:11;;;;;;;94.87;44.97;;;11.90;99.90;;;;;;5099438;27;38303;-73
2022/01/01 09:23:38;;;;;;;103.20;45.45;;;11.90;99.90;;;;;;5105888;27;38925;-72
2022/01/01 09:26:05;;;;;;;110.90;47.57;;;11.90;99.90;;;;;;5086781;27;39422;-72
2022/01/01 09:28:32;;;;;;;104.40;46.07;;;12.00;99.90;;;;;;5094697;27;40182;-73
2022/01/01 09:30:59;;;;;;;98.27;44.50;;;12.00;99.90;;;;;;5098032;27;38854;-73
2022/01/01 09:33:30;;;;;;;103.37;43.70;;;12.00;99.90;;;;;;5097564;27;38252;-72
2022/01/01 09:36:01;;;;;;;97.90;44.53;;;12.10;99.90;;;;;;5097952;27;38956;-74
2022/01/01 09:38:27;;;;;;;87.27;42.40;;;12.10;99.90;;;;;;5103857;27;47866;-74
2022/01/01 09:40:55;;;;;;;86.20;41.90;;;12.20;99.90;;;;;;5086009;27;38050;-73
2022/01/01 09:43:23;;;;;;;85.43;41.37;;;12.20;99.90;;;;;;5075684;27;38433;-73
2022/01/01 09:45:50;;;;;;;71.13;39.03;;;12.30;99.90;;;;;;5091236;28;39979;-73
2022/01/01 09:48:21;;;;;;;77.00;39.55;;;12.30;99.90;;;;;;5092492;27;38750;-74
2022/01/01 09:50:49;;;;;;;80.43;39.72;;;12.40;99.90;;;;;;5097916;27;36514;-73
2022/01/01 09:53:17;;;;;;;69.80;37.30;;;12.40;99.90;;;;;;5100831;27;38233;-74
2022/01/01 09:55:44;;;;;;;71.83;37.40;;;12.50;99.90;;;;;;5085757;27;39780;-73
2022/01/01 09:58:10;;;;;;;64.80;34.38;;;12.50;99.90;;;;;;5102658;27;39406;-73
2022/01/01 10:00:36;;;;;;;61.70;34.42;;;12.50;99.90;;;;;;5102980;27;39338;-73
2022/01/01 10:03:02;;;;;;;59.83;33.38;;;12.60;99.90;;;;;;5094341;27;38583;-73
2022/01/01 10:05:29;;;;;;;61.30;34.13;;;12.70;99.90;;;;;;5088921;27;37912;-73
2022/01/01 10:08:00;;;;;;;58.92;33.70;;;12.70;99.90;;;;;;5077078;27;39133;-74
2022/01/01 10:10:26;;;;;;;57.70;33.23;;;12.80;99.90;;;;;;5077038;27;40132;-74
2022/01/01 10:12:53;;;;;;;57.22;32.92;;;12.80;99.90;;;;;;5090631;27;39268;-73
2022/01/01 10:15:20;;;;;;;57.53;32.97;;;12.90;99.90;;;;;;5081227;27;38028;-74
2022/01/01 10:17:47;;;;;;;58.40;31.48;;;13.00;99.90;;;;;;5112270;27;39606;-73
2022/01/01 10:20:13;;;;;;;53.42;31.33;;;13.10;99.90;;;;;;5094709;27;37443;-74
2022/01/01 10:22:40;;;;;;;47.90;28.67;;;13.10;99.90;;;;;;5104831;27;38210;-74
2022/01/01 10:27:55;;;;;;;54.78;29.98;;;13.30;99.90;;;;;;5094493;27;39428;-73
2022/01/01 10:30:29;;;;;;;45.55;26.50;;;13.40;99.90;;;;;;5100683;27;38282;-73
2022/01/01 10:33:03;;;;;;;47.00;26.05;;;13.50;99.90;;;;;;5077371;27;40326;-73
2022/01/01 10:36:04;;;;;;;41.75;25.67;;;13.60;99.90;;;;;;5080980;27;48722;-73
2022/01/01 10:38:30;;;;;;;43.25;25.65;;;13.60;99.90;;;;;;5040150;27;48613;-74
2022/01/01 10:41:08;;;;;;;44.28;26.15;;;13.60;99.90;;;;;;5100923;27;38794;-74
2022/01/01 10:43:40;;;;;;;41.72;25.65;;;13.60;99.90;;;;;;5086081;27;47005;-74
2022/01/01 10:46:10;;;;;;;41.10;25.80;;;13.60;99.90;;;;;;5077989;28;37843;-74
2022/01/01 10:51:04;;;;;;;41.03;24.33;;;13.60;99.90;;;;;;5098116;27;39237;-74
2022/01/01 10:53:31;;;;;;;40.60;23.02;;;13.70;99.90;;;;;;5066003;28;41128;-74
2022/01/01 10:56:16;;;;;;;37.85;23.05;;;13.70;99.90;;;;;;5085904;28;37328;-74
2022/01/01 10:58:43;;;;;;;36.22;21.60;;;13.80;99.90;;;;;;5100495;28;48784;-74
2022/01/01 11:01:09;;;;;;;33.00;20.58;;;13.90;99.90;;;;;;5098757;27;38326;-74
2022/01/01 11:03:41;;;;;;;32.55;21.55;;;14.00;99.90;;;;;;5106529;28;37972;-74
2022/01/01 11:06:10;;;;;;;32.72;20.83;;;14.10;99.90;;;;;;5085818;27;37871;-74
2022/01/01 11:08:39;;;;;;;30.05;18.77;;;14.00;99.90;;;;;;5085996;27;40581;-73
2022/01/01 11:11:05;;;;;;;26.70;18.30;;;14.00;99.90;;;;;;5084579;28;39825;-73
2022/01/01 11:13:33;;;;;;;27.85;17.90;;;14.00;99.90;;;;;;5088102;28;38354;-73
2022/01/01 11:16:00;;;;;;;26.88;17.00;;;13.90;99.90;;;;;;5082876;27;38904;-75
2022/01/01 11:18:26;;;;;;;29.83;17.38;;;13.90;99.90;;;;;;5112477;27;41510;-75
2022/01/01 11:20:53;;;;;;;26.60;16.38;;;13.90;99.90;;;;;;5110992;27;38527;-75
2022/01/01 11:23:21;;;;;;;27.80;16.60;;;13.90;99.90;;;;;;5083094;28;39754;-75
2022/01/01 11:25:47;;;;;;;26.23;16.30;;;13.80;99.90;;;;;;5087053;27;37906;-75
2022/01/01 11:28:16;;;;;;;26.13;16.80;;;13.80;99.90;;;;;;5083292;27;38655;-75
2022/01/01 11:31:01;;;;;;;22.38;15.15;;;13.80;99.90;;;;;;5096525;27;39221;-75
2022/01/01 11:33:54;;;;;;;23.30;14.07;;;13.80;99.90;;;;;;5115700;27;48631;-75
2022/01/01 11:36:23;;;;;;;24.92;14.95;;;13.80;99.90;;;;;;5082209;28;38415;-74
2022/01/01 11:38:51;;;;;;;22.17;13.82;;;13.90;99.90;;;;;;5101699;27;39680;-76
2022/01/01 11:41:18;;;;;;;22.13;14.13;;;13.90;99.90;;;;;;5083074;28;38106;-75
2022/01/01 11:43:51;;;;;;;22.02;12.90;;;13.90;99.90;;;;;;5106082;28;38076;-75
2022/01/01 11:46:33;;;;;;;18.02;12.02;;;13.90;99.90;;;;;;5090382;27;37504;-75
2022/01/01 11:49:01;;;;;;;14.88;10.98;;;14.00;99.90;;;;;;5066581;28;40569;-75
2022/01/01 11:51:35;;;;;;;13.43;10.45;;;14.00;99.90;;;;;;5079397;28;46640;-75
2022/01/01 11:54:09;;;;;;;20.27;11.80;;;14.00;99.90;;;;;;5085897;27;38525;-73
2022/01/01 11:56:50;;;;;;;15.30;10.82;;;14.00;99.90;;;;;;5081406;28;47469;-73
2022/01/01 11:59:21;;;;;;;16.23;11.15;;;14.00;99.90;;;;;;5098526;27;38841;-74
2022/01/01 12:01:49;;;;;;;16.20;10.33;;;14.00;99.90;;;;;;5103830;27;38832;-73
2022/01/01 12:04:44;;;;;;;17.25;11.27;;;14.00;99.90;;;;;;5107795;28;38056;-74
2022/01/01 12:07:28;;;;;;;13.13;9.68;;;14.00;99.90;;;;;;5101172;27;38800;-73
2022/01/01 12:10:04;;;;;;;14.25;9.82;;;14.10;99.90;;;;;;5101315;27;39620;-73
2022/01/01 12:12:56;;;;;;;14.68;9.60;;;14.10;99.90;;;;;;5096554;27;48632;-73
2022/01/01 12:15:25;;;;;;;11.10;8.55;;;14.20;99.90;;;;;;5084953;27;37158;-73
2022/01/01 12:17:55;;;;;;;14.63;8.60;;;14.20;99.90;;;;;;5111651;27;37531;-74
2022/01/01 12:20:24;;;;;;;14.07;8.82;;;14.30;99.90;;;;;;5118213;27;39569;-74
2022/01/01 12:22:51;;;;;;;12.35;8.45;;;14.40;99.90;;;;;;5103427;27;37892;-74
2022/01/01 12:25:21;;;;;;;14.70;8.68;;;14.30;99.90;;;;;;5118840;27;38181;-73
2022/01/01 12:27:51;;;;;;;12.23;8.02;;;14.30;99.90;;;;;;5105500;28;36218;-74
2022/01/01 12:30:44;;;;;;;14.85;8.88;;;14.30;99.90;;;;;;5077111;28;39148;-74
2022/01/01 12:33:20;;;;;;;12.98;8.77;;;14.20;99.90;;;;;;5106738;27;37575;-74
2022/01/01 12:35:49;;;;;;;11.75;7.57;;;14.30;99.90;;;;;;5128362;27;38329;-74